createdAt,value
2023-03-24T00:00:10.206Z,85.39
2023-03-24T00:01:10.201Z,86.00
2023-03-24T00:02:10.226Z,85.80
2023-03-24T00:03:10.213Z,86.21
2023-03-24T00:04:10.201Z,86.30
2023-03-24T00:05:10.154Z,86.41
2023-03-24T00:06:10.155Z,86.82
2023-03-24T00:07:10.123Z,88.04
2023-03-24T00:08:10.100Z,88.14
2023-03-24T00:09:10.095Z,88.24
2023-03-24T00:10:10.072Z,89.26
2023-03-24T00:11:10.083Z,89.06
2023-03-24T00:12:10.054Z,89.51
2023-03-24T00:13:10.046Z,89.51
2023-03-24T00:14:10.032Z,89.51
2023-03-24T00:15:10.026Z,89.40
2023-03-24T00:16:10.104Z,90.53
2023-03-24T00:17:10.001Z,90.94
2023-03-24T00:18:10.003Z,91.35
2023-03-24T00:19:09.975Z,91.59
2023-03-24T00:20:09.986Z,91.79
2023-03-24T00:21:09.976Z,91.89
2023-03-24T00:22:09.951Z,92.61
2023-03-24T00:23:18.022Z,92.00
2023-03-24T00:24:09.914Z,92.71
2023-03-24T00:25:09.903Z,92.81
2023-03-24T00:26:09.936Z,92.30
2023-03-24T00:27:09.895Z,92.50
2023-03-24T00:28:09.876Z,93.12
2023-03-24T00:29:09.860Z,93.26
2023-03-24T00:30:09.874Z,94.18
2023-03-24T00:31:09.895Z,93.88
2023-03-24T00:32:09.833Z,94.29
2023-03-24T00:33:09.875Z,93.98
2023-03-24T00:34:09.839Z,94.08
2023-03-24T00:35:09.827Z,94.38
2023-03-24T00:36:09.898Z,94.59
2023-03-24T00:37:09.784Z,94.74
2023-03-24T00:38:09.764Z,95.51
2023-03-24T00:39:10.342Z,94.79
2023-03-24T00:40:09.741Z,94.79
2023-03-24T00:41:09.832Z,95.00
2023-03-24T00:42:09.736Z,95.45
2023-03-24T00:43:10.341Z,95.35
2023-03-24T00:44:09.713Z,95.76
2023-03-24T00:45:09.784Z,95.65
2023-03-24T00:46:09.673Z,95.76
2023-03-24T00:47:09.794Z,95.76
2023-03-24T00:48:09.736Z,95.61
2023-03-24T00:49:09.750Z,95.61
2023-03-24T00:50:09.649Z,95.65
2023-03-24T00:51:09.779Z,95.61
2023-03-24T00:52:09.652Z,95.61
2023-03-24T00:53:09.745Z,95.72
2023-03-24T00:54:09.644Z,95.72
2023-03-24T00:55:09.772Z,95.61
2023-03-24T00:56:09.562Z,95.81
2023-03-24T00:57:09.672Z,95.61
2023-03-24T00:58:09.545Z,95.61
2023-03-24T00:59:09.561Z,95.61
2023-03-24T01:00:35.441Z,95.81
2023-03-24T01:01:09.934Z,95.72
2023-03-24T01:02:09.661Z,96.12
2023-03-24T01:03:09.668Z,95.41
2023-03-24T01:04:09.627Z,95.41
2023-03-24T01:05:10.028Z,95.41
2023-03-24T01:06:09.595Z,94.65
2023-03-24T01:07:09.870Z,94.85
2023-03-24T01:08:09.648Z,94.45
2023-03-24T01:09:09.555Z,94.24
2023-03-24T01:10:09.469Z,93.73
2023-03-24T01:11:09.497Z,94.14
2023-03-24T01:12:09.497Z,93.89
2023-03-24T01:13:09.589Z,93.02
2023-03-24T01:14:09.581Z,94.24
2023-03-24T01:15:09.422Z,93.59
2023-03-24T01:16:09.528Z,93.18
2023-03-24T01:17:09.411Z,93.18
2023-03-24T01:18:09.434Z,93.38
2023-03-24T01:19:09.621Z,93.48
2023-03-24T01:20:09.425Z,93.18
2023-03-24T01:21:09.425Z,92.97
2023-03-24T01:22:09.424Z,93.07
2023-03-24T01:23:09.365Z,92.05
2023-03-24T01:24:09.369Z,92.36
2023-03-24T01:25:09.418Z,92.36
2023-03-24T01:26:09.344Z,91.85
2023-03-24T01:27:09.292Z,92.57
2023-03-24T01:28:09.484Z,92.26
2023-03-24T01:29:09.315Z,92.05
2023-03-24T01:30:09.452Z,92.26
2023-03-24T01:31:09.220Z,92.05
2023-03-24T01:32:09.265Z,91.75
2023-03-24T01:33:10.387Z,92.05
2023-03-24T01:34:09.211Z,92.05
2023-03-24T01:35:09.332Z,92.36
2023-03-24T01:36:11.735Z,91.85
2023-03-24T01:37:09.131Z,92.26
2023-03-24T01:38:09.107Z,91.55
2023-03-24T01:39:09.078Z,92.05
2023-03-24T01:40:09.106Z,91.03
2023-03-24T01:41:09.067Z,91.14
2023-03-24T01:42:09.069Z,91.65
2023-03-24T01:43:09.034Z,91.75
2023-03-24T01:44:09.045Z,91.24
2023-03-24T01:45:09.012Z,91.44
2023-03-24T01:46:09.072Z,91.03
2023-03-24T01:47:09.014Z,91.96
2023-03-24T01:48:09.051Z,91.55
2023-03-24T01:49:08.974Z,91.55
2023-03-24T01:50:08.992Z,91.35
2023-03-24T01:51:08.963Z,91.24
2023-03-24T01:52:08.960Z,91.55
2023-03-24T01:53:08.953Z,91.14
2023-03-24T01:54:08.930Z,91.14
2023-03-24T01:55:08.912Z,91.24
2023-03-24T01:56:08.913Z,91.55
2023-03-24T01:57:09.053Z,91.03
2023-03-24T01:58:08.887Z,91.14
2023-03-24T01:59:08.871Z,91.14
2023-03-24T02:00:08.846Z,90.94
2023-03-24T02:01:08.897Z,91.14
2023-03-24T02:02:08.840Z,91.35
2023-03-24T02:03:08.810Z,91.55
2023-03-24T02:04:08.865Z,91.44
2023-03-24T02:05:08.787Z,91.14
2023-03-24T02:06:08.795Z,91.03
2023-03-24T02:07:08.796Z,91.14
2023-03-24T02:08:08.761Z,91.44
2023-03-24T02:09:08.758Z,91.96
2023-03-24T02:10:08.730Z,91.55
2023-03-24T02:11:08.724Z,91.85
2023-03-24T02:12:08.735Z,91.14
2023-03-24T02:13:08.729Z,91.24
2023-03-24T02:14:08.696Z,91.35
2023-03-24T02:15:08.700Z,91.39
2023-03-24T02:16:08.754Z,91.44
2023-03-24T02:17:08.653Z,91.65
2023-03-24T02:18:08.708Z,91.14
2023-03-24T02:19:08.635Z,91.03
2023-03-24T02:20:08.647Z,91.44
2023-03-24T02:21:08.644Z,91.55
2023-03-24T02:22:08.606Z,91.65
2023-03-24T02:23:08.614Z,91.24
2023-03-24T02:24:08.576Z,91.03
2023-03-24T02:25:08.576Z,91.44
2023-03-24T02:26:08.565Z,92.05
2023-03-24T02:27:08.594Z,91.55
2023-03-24T02:28:08.710Z,91.75
2023-03-24T02:29:08.559Z,92.36
2023-03-24T02:30:08.550Z,91.75
2023-03-24T02:31:08.515Z,91.75
2023-03-24T02:32:08.496Z,92.16
2023-03-24T02:33:08.545Z,91.75
2023-03-24T02:34:08.477Z,91.85
2023-03-24T02:35:08.459Z,91.65
2023-03-24T02:36:08.590Z,92.05
2023-03-24T02:37:08.442Z,91.79
2023-03-24T02:38:08.434Z,92.16
2023-03-24T02:39:08.420Z,92.20
2023-03-24T02:40:08.430Z,91.75
2023-03-24T02:41:08.396Z,92.10
2023-03-24T02:42:08.395Z,92.16
2023-03-24T02:43:08.369Z,92.30
2023-03-24T02:44:08.407Z,92.20
2023-03-24T02:45:08.379Z,92.26
2023-03-24T02:46:08.374Z,92.05
2023-03-24T02:47:08.327Z,92.46
2023-03-24T02:48:09.999Z,92.05
2023-03-24T02:49:08.314Z,92.10
2023-03-24T02:50:08.300Z,92.16
2023-03-24T02:51:08.297Z,92.61
2023-03-24T02:52:08.281Z,92.05
2023-03-24T02:53:08.251Z,92.41
2023-03-24T02:54:08.301Z,92.00
2023-03-24T02:55:08.273Z,92.50
2023-03-24T02:56:08.317Z,91.89
2023-03-24T02:57:08.269Z,92.36
2023-03-24T02:58:08.200Z,92.30
2023-03-24T02:59:08.194Z,92.26
2023-03-24T03:00:08.201Z,91.89
2023-03-24T03:01:08.205Z,92.16
2023-03-24T03:02:08.186Z,92.50
2023-03-24T03:03:08.181Z,92.81
2023-03-24T03:04:08.158Z,92.81
2023-03-24T03:05:08.138Z,93.22
2023-03-24T03:06:08.116Z,93.02
2023-03-24T03:07:08.092Z,93.12
2023-03-24T03:08:08.104Z,93.12
2023-03-24T03:09:08.063Z,93.12
2023-03-24T03:10:08.067Z,93.12
2023-03-24T03:11:08.051Z,93.43
2023-03-24T03:12:08.034Z,93.12
2023-03-24T03:13:08.034Z,93.22
2023-03-24T03:14:08.039Z,93.43
2023-03-24T03:15:08.017Z,93.22
2023-03-24T03:16:08.140Z,93.12
2023-03-24T03:17:07.988Z,93.32
2023-03-24T03:18:08.032Z,93.22
2023-03-24T03:19:07.969Z,93.63
2023-03-24T03:20:08.065Z,94.24
2023-03-24T03:21:07.934Z,93.84
2023-03-24T03:22:07.948Z,94.04
2023-03-24T03:23:07.939Z,94.24
2023-03-24T03:24:07.971Z,94.14
2023-03-24T03:25:07.891Z,94.18
2023-03-24T03:26:07.885Z,94.45
2023-03-24T03:27:07.907Z,94.49
2023-03-24T03:28:07.861Z,94.65
2023-03-24T03:29:07.847Z,95.26
2023-03-24T03:30:07.849Z,95.31
2023-03-24T03:31:07.871Z,95.06
2023-03-24T03:32:08.020Z,95.31
2023-03-24T03:33:07.863Z,95.10
2023-03-24T03:34:07.803Z,95.41
2023-03-24T03:35:07.806Z,95.36
2023-03-24T03:36:07.800Z,94.45
2023-03-24T03:37:07.762Z,94.45
2023-03-24T03:38:07.768Z,94.14
2023-03-24T03:39:07.758Z,94.34
2023-03-24T03:40:07.745Z,94.34
2023-03-24T03:41:07.738Z,95.51
2023-03-24T03:42:07.723Z,95.51
2023-03-24T03:43:07.720Z,94.29
2023-03-24T03:44:07.719Z,94.38
2023-03-24T03:45:07.676Z,94.55
2023-03-24T03:46:07.732Z,94.34
2023-03-24T03:47:07.651Z,93.93
2023-03-24T03:48:07.732Z,94.14
2023-03-24T03:49:07.648Z,94.24
2023-03-24T03:50:07.648Z,94.24
2023-03-24T03:51:13.629Z,94.14
2023-03-24T03:52:08.609Z,94.34
2023-03-24T03:53:07.589Z,94.24
2023-03-24T03:54:07.605Z,94.24
2023-03-24T03:55:07.612Z,94.14
2023-03-24T03:56:07.573Z,94.04
2023-03-24T03:57:07.619Z,94.55
2023-03-24T03:58:07.560Z,94.24
2023-03-24T03:59:07.530Z,94.04
2023-03-24T04:00:07.527Z,94.04
2023-03-24T04:01:07.518Z,93.93
2023-03-24T04:02:07.552Z,94.04
2023-03-24T04:03:07.550Z,93.84
2023-03-24T04:04:07.490Z,93.84
2023-03-24T04:05:07.491Z,94.04
2023-03-24T04:06:07.475Z,93.73
2023-03-24T04:07:07.436Z,94.34
2023-03-24T04:08:07.414Z,94.34
2023-03-24T04:09:07.424Z,94.14
2023-03-24T04:10:07.410Z,93.84
2023-03-24T04:11:07.382Z,94.04
2023-03-24T04:12:07.381Z,93.93
2023-03-24T04:13:07.359Z,94.24
2023-03-24T04:14:07.359Z,93.63
2023-03-24T04:15:07.369Z,93.84
2023-03-24T04:16:07.368Z,94.14
2023-03-24T04:17:07.334Z,93.73
2023-03-24T04:18:07.368Z,93.63
2023-03-24T04:19:07.295Z,93.63
2023-03-24T04:20:07.303Z,94.24
2023-03-24T04:21:07.272Z,94.14
2023-03-24T04:22:07.290Z,93.88
2023-03-24T04:23:07.249Z,94.24
2023-03-24T04:24:07.238Z,94.04
2023-03-24T04:25:07.230Z,94.29
2023-03-24T04:26:07.232Z,94.18
2023-03-24T04:27:07.236Z,94.04
2023-03-24T04:28:07.192Z,94.04
2023-03-24T04:29:07.186Z,94.24
2023-03-24T04:30:07.192Z,94.29
2023-03-24T04:31:07.211Z,93.73
2023-03-24T04:32:07.154Z,93.84
2023-03-24T04:33:07.212Z,93.88
2023-03-24T04:34:07.132Z,94.14
2023-03-24T04:35:07.138Z,94.14
2023-03-24T04:36:07.151Z,94.24
2023-03-24T04:37:07.104Z,94.04
2023-03-24T04:38:07.088Z,93.84
2023-03-24T04:39:07.081Z,94.24
2023-03-24T04:40:07.062Z,94.08
2023-03-24T04:41:07.069Z,94.18
2023-03-24T04:42:07.050Z,95.41
2023-03-24T04:43:07.033Z,95.06
2023-03-24T04:44:07.017Z,95.06
2023-03-24T04:45:07.035Z,95.10
2023-03-24T04:46:07.059Z,95.41
2023-03-24T04:47:07.014Z,95.72
2023-03-24T04:48:07.092Z,95.51
2023-03-24T04:49:06.954Z,96.02
2023-03-24T04:50:06.982Z,95.72
2023-03-24T04:51:06.932Z,96.27
2023-03-24T04:52:06.993Z,96.33
2023-03-24T04:53:06.914Z,96.47
2023-03-24T04:54:06.932Z,95.92
2023-03-24T04:55:06.891Z,96.47
2023-03-24T04:56:06.881Z,97.04
2023-03-24T04:57:06.915Z,96.73
2023-03-24T04:58:06.893Z,96.63
2023-03-24T04:59:06.856Z,96.68
2023-03-24T05:00:06.847Z,96.63
2023-03-24T05:01:06.865Z,96.73
2023-03-24T05:02:06.847Z,96.47
2023-03-24T05:03:06.838Z,96.68
2023-03-24T05:04:06.847Z,96.27
2023-03-24T05:05:06.788Z,97.19
2023-03-24T05:06:06.785Z,97.19
2023-03-24T05:07:06.780Z,97.90
2023-03-24T05:08:06.798Z,97.49
2023-03-24T05:09:06.730Z,97.60
2023-03-24T05:10:06.734Z,97.49
2023-03-24T05:11:06.731Z,97.34
2023-03-24T05:12:06.715Z,97.60
2023-03-24T05:13:06.728Z,97.39
2023-03-24T05:14:06.718Z,97.39
2023-03-24T05:15:06.665Z,97.60
2023-03-24T05:16:06.662Z,97.49
2023-03-24T05:17:06.654Z,97.49
2023-03-24T05:18:06.666Z,97.60
2023-03-24T05:19:06.621Z,97.34
2023-03-24T05:20:06.638Z,97.45
2023-03-24T05:21:06.601Z,97.60
2023-03-24T05:22:06.611Z,97.39
2023-03-24T05:23:06.597Z,97.60
2023-03-24T05:24:06.594Z,97.55
2023-03-24T05:25:06.584Z,97.55
2023-03-24T05:26:06.542Z,97.04
2023-03-24T05:27:06.544Z,97.34
2023-03-24T05:28:06.547Z,96.43
2023-03-24T05:29:06.511Z,96.47
2023-03-24T05:30:06.520Z,96.68
2023-03-24T05:31:06.492Z,96.33
2023-03-24T05:32:06.476Z,96.68
2023-03-24T05:33:06.507Z,96.63
2023-03-24T05:34:06.445Z,96.43
2023-03-24T05:35:06.469Z,96.94
2023-03-24T05:36:06.475Z,96.22
2023-03-24T05:37:06.419Z,96.12
2023-03-24T05:38:06.407Z,96.43
2023-03-24T05:39:06.408Z,96.43
2023-03-24T05:40:06.423Z,96.22
2023-03-24T05:41:06.376Z,95.67
2023-03-24T05:42:06.358Z,95.51
2023-03-24T05:43:06.357Z,96.02
2023-03-24T05:44:06.372Z,95.87
2023-03-24T05:45:06.340Z,95.61
2023-03-24T05:46:06.340Z,95.67
2023-03-24T05:47:06.324Z,95.77
2023-03-24T05:48:06.343Z,95.36
2023-03-24T05:49:06.308Z,95.16
2023-03-24T05:50:06.290Z,95.57
2023-03-24T05:51:06.283Z,95.26
2023-03-24T05:52:06.254Z,95.57
2023-03-24T05:53:06.249Z,95.36
2023-03-24T05:54:06.359Z,95.57
2023-03-24T05:55:06.210Z,95.36
2023-03-24T05:56:06.250Z,95.36
2023-03-24T05:57:06.258Z,95.41
2023-03-24T05:58:06.181Z,95.31
2023-03-24T05:59:06.193Z,95.57
2023-03-24T06:00:06.160Z,95.36
2023-03-24T06:01:06.170Z,95.36
2023-03-24T06:02:06.185Z,95.06
2023-03-24T06:03:06.452Z,94.45
2023-03-24T06:04:06.299Z,94.45
2023-03-24T06:05:06.123Z,94.45
2023-03-24T06:06:06.098Z,94.45
2023-03-24T06:07:06.130Z,93.93
2023-03-24T06:08:06.085Z,94.45
2023-03-24T06:09:06.080Z,94.34
2023-03-24T06:10:06.049Z,94.34
2023-03-24T06:11:06.034Z,94.55
2023-03-24T06:12:06.070Z,94.65
2023-03-24T06:13:06.024Z,95.36
2023-03-24T06:14:06.018Z,94.65
2023-03-24T06:15:06.004Z,95.26
2023-03-24T06:16:06.039Z,95.26
2023-03-24T06:17:05.975Z,94.95
2023-03-24T06:18:06.108Z,95.06
2023-03-24T06:19:05.946Z,95.36
2023-03-24T06:20:05.957Z,95.06
2023-03-24T06:21:05.930Z,95.06
2023-03-24T06:22:05.949Z,95.47
2023-03-24T06:23:05.988Z,95.26
2023-03-24T06:24:13.953Z,94.95
2023-03-24T06:25:05.898Z,94.95
2023-03-24T06:26:05.905Z,94.95
2023-03-24T06:27:05.855Z,94.85
2023-03-24T06:28:05.883Z,94.95
2023-03-24T06:29:05.854Z,95.57
2023-03-24T06:30:05.870Z,94.95
2023-03-24T06:31:05.884Z,95.42
2023-03-24T06:32:05.853Z,94.71
2023-03-24T06:33:08.132Z,94.60
2023-03-24T06:34:05.799Z,94.60
2023-03-24T06:35:05.779Z,94.30
2023-03-24T06:36:05.824Z,93.99
2023-03-24T06:37:05.776Z,93.64
2023-03-24T06:38:05.795Z,94.15
2023-03-24T06:39:05.727Z,93.85
2023-03-24T06:40:05.845Z,93.74
2023-03-24T06:41:05.731Z,93.03
2023-03-24T06:42:05.786Z,92.52
2023-03-24T06:43:05.701Z,92.68
2023-03-24T06:44:05.700Z,92.11
2023-03-24T06:45:05.676Z,92.07
2023-03-24T06:46:05.786Z,92.27
2023-03-24T06:47:05.652Z,91.87
2023-03-24T06:48:05.698Z,91.93
2023-03-24T06:49:05.625Z,91.93
2023-03-24T06:50:05.639Z,91.83
2023-03-24T06:51:05.597Z,91.11
2023-03-24T06:52:05.654Z,90.91
2023-03-24T06:53:05.584Z,91.11
2023-03-24T06:54:05.575Z,91.52
2023-03-24T06:55:05.556Z,91.11
2023-03-24T06:56:05.571Z,90.16
2023-03-24T06:57:05.579Z,90.56
2023-03-24T06:58:05.531Z,90.36
2023-03-24T06:59:05.523Z,89.95
2023-03-24T07:00:05.550Z,89.85
2023-03-24T07:01:05.490Z,89.54
2023-03-24T07:02:05.553Z,89.54
2023-03-24T07:03:05.571Z,89.54
2023-03-24T07:04:05.533Z,89.54
2023-03-24T07:05:05.463Z,89.24
2023-03-24T07:06:05.441Z,89.20
2023-03-24T07:07:30.855Z,89.24
2023-03-24T07:08:33.930Z,89.50
2023-03-24T07:09:06.425Z,89.54
2023-03-24T07:10:05.391Z,89.44
2023-03-24T07:11:05.375Z,88.53
2023-03-24T07:12:05.379Z,89.14
2023-03-24T07:13:05.354Z,89.34
2023-03-24T07:14:05.368Z,89.44
2023-03-24T07:15:05.333Z,89.44
2023-03-24T07:16:05.376Z,89.54
2023-03-24T07:17:07.337Z,88.93
2023-03-24T07:18:05.506Z,89.75
2023-03-24T07:19:05.371Z,89.64
2023-03-24T07:20:05.341Z,89.44
2023-03-24T07:21:05.398Z,89.54
2023-03-24T07:22:05.953Z,89.54
2023-03-24T07:23:05.322Z,89.64
2023-03-24T07:24:05.235Z,89.54
2023-03-24T07:25:05.221Z,89.95
2023-03-24T07:26:05.226Z,89.20
2023-03-24T07:27:05.204Z,89.30
2023-03-24T07:28:05.200Z,88.59
2023-03-24T07:29:05.176Z,88.89
2023-03-24T07:30:05.289Z,89.61
2023-03-24T07:31:05.202Z,89.75
2023-03-24T07:32:05.180Z,90.77
2023-03-24T07:33:05.188Z,90.86
2023-03-24T07:34:05.112Z,91.38
2023-03-24T07:35:05.148Z,91.99
2023-03-24T07:36:05.205Z,92.03
2023-03-24T07:37:05.101Z,92.13
2023-03-24T07:38:05.309Z,91.83
2023-03-24T07:39:05.067Z,92.13
2023-03-24T07:40:05.052Z,92.64
2023-03-24T07:41:05.036Z,93.05
2023-03-24T07:42:05.044Z,93.09
2023-03-24T07:43:06.276Z,93.70
2023-03-24T07:44:05.016Z,94.05
2023-03-24T07:45:05.014Z,93.85
2023-03-24T07:46:05.056Z,93.07
2023-03-24T07:47:04.980Z,92.67
2023-03-24T07:48:05.071Z,92.05
2023-03-24T07:49:18.101Z,91.79
2023-03-24T07:50:05.952Z,92.10
2023-03-24T07:51:04.958Z,91.59
2023-03-24T07:52:04.911Z,91.28
2023-03-24T07:53:04.920Z,91.74
2023-03-24T07:54:04.997Z,91.63
2023-03-24T07:55:05.333Z,91.63
2023-03-24T07:56:20.052Z,91.63
2023-03-24T07:57:04.909Z,91.43
2023-03-24T07:58:04.870Z,90.51
2023-03-24T07:59:04.915Z,91.39
2023-03-24T08:00:04.853Z,91.39
2023-03-24T08:01:04.829Z,91.18
2023-03-24T08:02:05.002Z,89.75
2023-03-24T08:03:04.962Z,89.75
2023-03-24T08:04:05.110Z,89.55
2023-03-24T08:05:04.784Z,89.51
2023-03-24T08:06:04.775Z,89.61
2023-03-24T08:07:04.761Z,89.87
2023-03-24T08:08:04.754Z,89.57
2023-03-24T08:09:04.763Z,89.77
2023-03-24T08:10:04.714Z,88.75
2023-03-24T08:11:04.719Z,89.53
2023-03-24T08:12:17.447Z,89.63
2023-03-24T08:13:05.694Z,89.53
2023-03-24T08:14:04.688Z,87.73
2023-03-24T08:15:04.662Z,87.49
2023-03-24T08:16:04.695Z,87.18
2023-03-24T08:17:04.899Z,87.38
2023-03-24T08:18:04.697Z,86.77
2023-03-24T08:19:04.621Z,86.98
2023-03-24T08:20:06.005Z,87.38
2023-03-24T08:21:04.620Z,86.57
2023-03-24T08:22:04.621Z,85.45
2023-03-24T08:23:04.798Z,85.86
2023-03-24T08:24:04.642Z,85.25
2023-03-24T08:25:04.555Z,85.75
2023-03-24T08:26:04.533Z,86.68
2023-03-24T08:27:04.528Z,85.72
2023-03-24T08:28:04.565Z,85.88
2023-03-24T08:29:04.549Z,85.37
2023-03-24T08:30:04.518Z,85.58
2023-03-24T08:31:04.508Z,85.53
2023-03-24T08:32:04.562Z,85.60
2023-03-24T08:33:04.547Z,85.39
2023-03-24T08:34:04.457Z,86.00
2023-03-24T08:35:04.467Z,84.99
2023-03-24T08:36:04.508Z,85.70
2023-03-24T08:37:04.430Z,84.95
2023-03-24T08:38:06.859Z,84.64
2023-03-24T08:39:04.397Z,83.26
2023-03-24T08:40:04.436Z,84.07
2023-03-24T08:41:04.381Z,84.07
2023-03-24T08:42:04.384Z,83.87
2023-03-24T08:43:04.425Z,83.97
2023-03-24T08:44:06.368Z,84.64
2023-03-24T08:45:04.430Z,84.03
2023-03-24T08:46:04.375Z,83.67
2023-03-24T08:47:04.316Z,83.62
2023-03-24T08:48:04.319Z,82.34
2023-03-24T08:49:04.317Z,81.90
2023-03-24T08:50:04.271Z,83.12
2023-03-24T08:51:04.261Z,83.32
2023-03-24T08:52:04.290Z,83.42
2023-03-24T08:53:04.249Z,80.78
2023-03-24T08:54:04.206Z,80.27
2023-03-24T08:55:04.207Z,80.78
2023-03-24T08:56:04.204Z,82.00
2023-03-24T08:57:04.238Z,82.10
2023-03-24T08:58:04.181Z,81.70
2023-03-24T08:59:04.196Z,81.19
2023-03-24T09:00:04.153Z,80.37
2023-03-24T09:01:04.146Z,80.98
2023-03-24T09:02:04.160Z,81.70
2023-03-24T09:03:04.156Z,80.78
2023-03-24T09:04:04.129Z,79.77
2023-03-24T09:05:04.195Z,80.17
2023-03-24T09:06:04.079Z,80.07
2023-03-24T09:07:04.095Z,80.24
2023-03-24T09:08:04.090Z,79.56
2023-03-24T09:09:04.059Z,79.56
2023-03-24T09:10:04.044Z,79.72
2023-03-24T09:11:04.051Z,78.71
2023-03-24T09:12:04.090Z,78.06
2023-03-24T09:13:04.008Z,78.57
2023-03-24T09:14:04.033Z,78.47
2023-03-24T09:15:03.986Z,76.44
2023-03-24T09:16:04.078Z,76.14
2023-03-24T09:17:03.998Z,75.46
2023-03-24T09:18:04.024Z,73.63
2023-03-24T09:19:03.954Z,73.87
2023-03-24T09:20:03.963Z,74.48
2023-03-24T09:21:03.917Z,75.60
2023-03-24T09:22:03.916Z,74.28
2023-03-24T09:23:03.920Z,74.04
2023-03-24T09:24:03.903Z,75.19
2023-03-24T09:25:03.901Z,74.38
2023-03-24T09:26:03.878Z,74.18
2023-03-24T09:27:03.860Z,73.46
2023-03-24T09:28:03.849Z,73.53
2023-03-24T09:29:03.856Z,75.46
2023-03-24T09:30:03.820Z,75.36
2023-03-24T09:31:03.902Z,72.65
2023-03-24T09:32:03.792Z,72.75
2023-03-24T09:33:03.861Z,72.55
2023-03-24T09:34:04.387Z,73.16
2023-03-24T09:35:03.765Z,73.36
2023-03-24T09:36:03.810Z,73.97
2023-03-24T09:37:03.730Z,72.96
2023-03-24T09:38:03.741Z,73.97
2023-03-24T09:39:03.741Z,74.58
2023-03-24T09:40:03.730Z,74.38
2023-03-24T09:41:03.697Z,75.40
2023-03-24T09:42:03.719Z,73.77
2023-03-24T09:43:03.671Z,74.07
2023-03-24T09:44:03.673Z,75.40
2023-03-24T09:45:03.667Z,74.44
2023-03-24T09:46:03.642Z,73.94
2023-03-24T09:47:03.669Z,73.09
2023-03-24T09:48:03.658Z,73.09
2023-03-24T09:49:03.648Z,72.78
2023-03-24T09:50:03.608Z,72.58
2023-03-24T09:51:03.617Z,71.64
2023-03-24T09:52:03.619Z,72.25
2023-03-24T09:53:03.570Z,72.55
2023-03-24T09:54:03.569Z,71.84
2023-03-24T09:55:03.540Z,70.52
2023-03-24T09:56:03.550Z,70.72
2023-03-24T09:57:03.555Z,70.32
2023-03-24T09:58:03.508Z,70.52
2023-03-24T09:59:03.501Z,71.09
2023-03-24T10:00:03.495Z,71.40
2023-03-24T10:01:03.565Z,70.05
2023-03-24T10:02:03.486Z,70.15
2023-03-24T10:03:03.553Z,71.16
2023-03-24T10:04:03.678Z,69.57
2023-03-24T10:05:03.443Z,69.78
2023-03-24T10:06:03.417Z,69.47
2023-03-24T10:07:03.408Z,69.51
2023-03-24T10:08:03.421Z,69.51
2023-03-24T10:09:03.411Z,69.00
2023-03-24T10:10:03.394Z,70.52
2023-03-24T10:11:03.388Z,70.42
2023-03-24T10:12:03.376Z,70.45
2023-03-24T10:13:03.366Z,70.25
2023-03-24T10:14:04.344Z,69.67
2023-03-24T10:15:03.324Z,68.66
2023-03-24T10:16:03.357Z,69.20
2023-03-24T10:17:03.313Z,68.99
2023-03-24T10:18:03.323Z,68.69
2023-03-24T10:19:03.281Z,68.79
2023-03-24T10:20:03.302Z,68.79
2023-03-24T10:21:03.254Z,68.49
2023-03-24T10:22:03.284Z,68.38
2023-03-24T10:23:03.244Z,68.99
2023-03-24T10:24:03.257Z,69.30
2023-03-24T10:25:03.228Z,69.09
2023-03-24T10:26:03.209Z,68.69
2023-03-24T10:27:03.249Z,66.15
2023-03-24T10:28:03.197Z,67.16
2023-03-24T10:29:03.190Z,65.10
2023-03-24T10:30:03.176Z,66.72
2023-03-24T10:31:03.141Z,66.08
2023-03-24T10:32:03.208Z,65.04
2023-03-24T10:33:03.252Z,63.82
2023-03-24T10:34:03.146Z,64.03
2023-03-24T10:35:03.106Z,63.59
2023-03-24T10:36:04.715Z,63.66
2023-03-24T10:37:03.113Z,62.34
2023-03-24T10:38:03.106Z,61.63
2023-03-24T10:39:12.958Z,63.23
2023-03-24T10:40:04.072Z,61.60
2023-03-24T10:41:03.034Z,61.30
2023-03-24T10:42:04.183Z,62.11
2023-03-24T10:43:07.418Z,61.80
2023-03-24T10:44:04.055Z,61.83
2023-03-24T10:45:03.042Z,63.73
2023-03-24T10:46:03.008Z,62.29
2023-03-24T10:47:02.993Z,62.62
2023-03-24T10:48:03.010Z,62.82
2023-03-24T10:49:02.939Z,63.43
2023-03-24T10:50:12.482Z,64.64
2023-03-24T10:51:03.987Z,65.45
2023-03-24T10:52:02.939Z,68.23
2023-03-24T10:53:02.929Z,69.64
2023-03-24T10:54:03.423Z,70.56
2023-03-24T10:55:02.885Z,70.96
2023-03-24T10:56:02.917Z,72.65
2023-03-24T10:57:02.901Z,71.84
2023-03-24T10:58:02.862Z,71.94
2023-03-24T10:59:02.861Z,71.94
2023-03-24T11:00:02.908Z,73.05
2023-03-24T11:01:03.053Z,72.85
2023-03-24T11:02:02.899Z,73.19
2023-03-24T11:03:02.910Z,73.16
2023-03-24T11:04:03.451Z,72.99
2023-03-24T11:05:02.756Z,72.55
2023-03-24T11:06:02.774Z,74.27
2023-03-24T11:07:02.825Z,73.36
2023-03-24T11:08:02.916Z,74.37
2023-03-24T11:09:02.841Z,73.49
2023-03-24T11:10:02.770Z,74.41
2023-03-24T11:11:02.752Z,74.81
2023-03-24T11:12:02.727Z,75.32
2023-03-24T11:13:02.862Z,75.18
2023-03-24T11:14:02.705Z,74.91
2023-03-24T11:15:17.599Z,74.41
2023-03-24T11:16:03.735Z,73.05
2023-03-24T11:17:02.684Z,74.17
2023-03-24T11:18:02.645Z,74.37
2023-03-24T11:19:02.613Z,73.02
2023-03-24T11:20:02.590Z,72.88
2023-03-24T11:21:02.601Z,72.95
2023-03-24T11:22:02.581Z,71.40
2023-03-24T11:23:02.634Z,66.82
2023-03-24T11:24:02.553Z,66.38
2023-03-24T11:25:02.552Z,66.69
2023-03-24T11:26:02.546Z,65.30
2023-03-24T11:27:02.559Z,64.09
2023-03-24T11:28:02.500Z,65.20
2023-03-24T11:29:02.507Z,63.58
2023-03-24T11:30:02.476Z,63.18
2023-03-24T11:31:02.535Z,63.01
2023-03-24T11:32:02.542Z,64.02
2023-03-24T11:33:02.456Z,62.40
2023-03-24T11:34:02.440Z,61.32
2023-03-24T11:35:02.425Z,60.94
2023-03-24T11:36:05.973Z,61.95
2023-03-24T11:37:02.444Z,61.44
2023-03-24T11:38:02.417Z,61.68
2023-03-24T11:39:02.390Z,61.95
2023-03-24T11:40:02.398Z,61.98
2023-03-24T11:41:02.355Z,62.49
2023-03-24T11:42:02.396Z,61.88
2023-03-24T11:43:02.338Z,61.75
2023-03-24T11:44:02.330Z,60.84
2023-03-24T11:45:02.326Z,60.23
2023-03-24T11:46:02.361Z,55.77
2023-03-24T11:47:02.322Z,53.17
2023-03-24T11:48:02.366Z,53.58
2023-03-24T11:49:02.277Z,54.08
2023-03-24T11:50:02.405Z,54.08
2023-03-24T11:51:03.177Z,52.36
2023-03-24T11:52:02.265Z,53.37
2023-03-24T11:53:02.235Z,53.80
2023-03-24T11:54:02.215Z,54.89
2023-03-24T11:55:02.316Z,55.50
2023-03-24T11:56:02.273Z,55.60
2023-03-24T11:57:02.215Z,56.51
2023-03-24T11:58:02.171Z,55.73
2023-03-24T11:59:02.179Z,56.03
2023-03-24T12:00:02.151Z,56.13
2023-03-24T12:01:02.157Z,56.16
2023-03-24T12:02:02.140Z,55.76
2023-03-24T12:03:02.268Z,55.85
2023-03-24T12:04:02.170Z,55.96
2023-03-24T12:05:02.123Z,56.05
2023-03-24T12:06:02.241Z,57.68
2023-03-24T12:07:02.107Z,56.26
2023-03-24T12:08:02.060Z,58.29
2023-03-24T12:09:02.057Z,58.18
2023-03-24T12:10:02.041Z,59.00
2023-03-24T12:11:02.055Z,60.21
2023-03-24T12:12:08.160Z,60.11
2023-03-24T12:13:03.011Z,62.04
2023-03-24T12:14:02.027Z,64.58
2023-03-24T12:15:02.017Z,66.50
2023-03-24T12:16:02.011Z,66.57
2023-03-24T12:17:01.951Z,66.97
2023-03-24T12:18:02.012Z,67.76
2023-03-24T12:19:01.967Z,68.77
2023-03-24T12:20:01.947Z,68.73
2023-03-24T12:21:01.916Z,68.63
2023-03-24T12:22:01.992Z,69.41
2023-03-24T12:23:01.951Z,69.38
2023-03-24T12:24:10.091Z,68.37
2023-03-24T12:25:01.898Z,67.63
2023-03-24T12:26:01.872Z,66.92
2023-03-24T12:27:01.871Z,68.13
2023-03-24T12:28:01.837Z,68.03
2023-03-24T12:29:01.840Z,67.69
2023-03-24T12:30:01.826Z,68.53
2023-03-24T12:31:01.848Z,68.43
2023-03-24T12:32:01.785Z,69.37
2023-03-24T12:33:01.808Z,69.37
2023-03-24T12:34:01.804Z,70.05
2023-03-24T12:35:01.770Z,70.22
2023-03-24T12:36:01.864Z,70.18
2023-03-24T12:37:01.744Z,69.95
2023-03-24T12:38:01.731Z,67.86
2023-03-24T12:39:02.073Z,66.78
2023-03-24T12:40:01.721Z,66.47
2023-03-24T12:41:01.717Z,66.58
2023-03-24T12:42:01.681Z,66.44
2023-03-24T12:43:01.664Z,65.87
2023-03-24T12:44:01.660Z,65.56
2023-03-24T12:45:01.640Z,62.93
2023-03-24T12:46:01.682Z,61.29
2023-03-24T12:47:01.618Z,60.30
2023-03-24T12:48:01.647Z,60.00
2023-03-24T12:49:01.605Z,58.78
2023-03-24T12:50:01.608Z,59.80
2023-03-24T12:51:01.588Z,60.10
2023-03-24T12:52:01.703Z,60.50